Time;durP1;ratioP1;P1;durP2;ratioP2;P2;SDS_P1;SDS_P2;PMS_P1;PMS_P2;Temp;Humidity;BMP_temperature;BMP_pressure;BME280_temperature;BME280_humidity;BME280_pressure;Samples;Min_cycle;Max_cycle;Signal;HPM_P1;HPM_P2
2022/04/07 00:00:09;;;;;;;6.15;1.98;;;;;;;;;;5019694;28;20101;-68
2022/04/07 00:02:36;;;;;;;6.85;1.50;;;;;;;;;;5016893;28;20032;-68
2022/04/07 00:05:02;;;;;;;6.13;1.58;;;;;;;;;;5015443;28;20053;-69
2022/04/07 00:07:28;;;;;;;6.22;1.65;;;;;;;;;;5017183;28;20034;-69
2022/04/07 00:09:54;;;;;;;6.88;1.52;;;;;;;;;;5020283;28;20026;-69
2022/04/07 00:12:20;;;;;;;7.80;1.70;;;;;;;;;;5017212;28;20022;-69
2022/04/07 00:14:46;;;;;;;7.97;1.88;;;;;;;;;;5015283;28;20025;-69
2022/04/07 00:17:13;;;;;;;12.07;2.03;;;;;;;;;;5017257;28;20026;-68
2022/04/07 00:19:39;;;;;;;7.63;1.58;;;;;;;;;;5018999;28;20069;-69
2022/04/07 00:22:05;;;;;;;5.68;1.60;;;;;;;;;;5017296;28;20033;-69
2022/04/07 00:24:31;;;;;;;11.93;1.83;;;;;;;;;;5015569;28;20494;-68
2022/04/07 00:26:57;;;;;;;6.20;1.80;;;;;;;;;;5015042;28;20439;-69
2022/04/07 00:29:23;;;;;;;6.97;2.38;;;;;;;;;;5017916;28;20495;-69
2022/04/07 00:31:56;;;;;;;8.98;2.53;;;;;;;;;;5016419;28;20025;-69
2022/04/07 00:34:22;;;;;;;6.72;1.50;;;;;;;;;;5014825;28;20425;-69
2022/04/07 00:36:49;;;;;;;6.80;1.80;;;;;;;;;;5020432;28;20030;-69
2022/04/07 00:39:15;;;;;;;10.18;2.13;;;;;;;;;;5014771;28;20030;-69
2022/04/07 00:41:42;;;;;;;6.03;2.35;;;;;;;;;;5019858;28;20524;-69
2022/04/07 00:44:09;;;;;;;12.80;2.13;;;;;;;;;;5016495;28;20542;-69
2022/04/07 00:46:38;;;;;;;11.93;1.83;;;;;;;;;;5018340;28;20076;-69
2022/04/07 00:49:05;;;;;;;9.70;2.20;;;;;;;;;;5015513;28;20069;-69
2022/04/07 00:51:31;;;;;;;7.45;1.55;;;;;;;;;;5012966;28;20545;-69
2022/04/07 00:53:57;;;;;;;7.35;2.13;;;;;;;;;;5012647;28;20029;-69
2022/04/07 00:56:24;;;;;;;10.07;2.10;;;;;;;;;;5018026;28;20048;-69
2022/04/07 00:58:50;;;;;;;9.13;1.88;;;;;;;;;;5018380;28;20080;-68
2022/04/07 01:01:20;;;;;;;9.15;1.80;;;;;;;;;;5017167;28;20025;-70
2022/04/07 01:03:47;;;;;;;9.43;2.10;;;;;;;;;;5017667;28;20535;-69
2022/04/07 01:06:13;;;;;;;7.57;1.40;;;;;;;;;;5015776;28;20058;-69
2022/04/07 01:08:39;;;;;;;11.73;1.70;;;;;;;;;;5019294;28;20037;-69
2022/04/07 01:11:05;;;;;;;8.25;1.92;;;;;;;;;;5015888;28;20018;-68
2022/04/07 01:13:45;;;;;;;11.55;2.35;;;;;;;;;;5014992;28;20058;-69
2022/04/07 01:16:11;;;;;;;8.70;2.08;;;;;;;;;;5018319;28;20021;-69
2022/04/07 01:18:38;;;;;;;8.32;1.65;;;;;;;;;;5015312;28;20029;-69
2022/04/07 01:21:04;;;;;;;8.13;2.13;;;;;;;;;;5015441;28;20102;-69
2022/04/07 01:23:34;;;;;;;7.53;1.70;;;;;;;;;;5014826;28;20033;-68
2022/04/07 01:26:02;;;;;;;8.18;2.65;;;;;;;;;;5015622;28;20478;-69
2022/04/07 01:28:28;;;;;;;11.25;2.53;;;;;;;;;;5018942;28;20042;-69
2022/04/07 01:30:54;;;;;;;8.98;3.13;;;;;;;;;;5014994;28;20018;-68
2022/04/07 01:33:20;;;;;;;9.93;2.95;;;;;;;;;;5016675;28;20026;-69
2022/04/07 01:35:47;;;;;;;7.82;2.47;;;;;;;;;;5016910;28;20030;-68
2022/04/07 01:38:13;;;;;;;15.55;3.85;;;;;;;;;;5017298;28;20025;-68
2022/04/07 01:40:39;;;;;;;14.57;3.58;;;;;;;;;;5016809;28;20470;-69
2022/04/07 01:43:07;;;;;;;14.60;3.38;;;;;;;;;;5019538;28;20029;-68
2022/04/07 01:45:35;;;;;;;13.48;2.80;;;;;;;;;;5017925;28;20033;-68
2022/04/07 01:48:04;;;;;;;16.38;4.03;;;;;;;;;;5014248;28;20918;-69
2022/04/07 01:50:31;;;;;;;14.90;3.65;;;;;;;;;;5013647;28;20057;-69
2022/04/07 01:52:57;;;;;;;12.90;3.53;;;;;;;;;;5017362;28;20034;-69
2022/04/07 01:55:26;;;;;;;17.55;4.03;;;;;;;;;;5012661;28;20018;-68
2022/04/07 01:57:52;;;;;;;15.73;4.18;;;;;;;;;;5013165;28;20026;-68
2022/04/07 02:00:18;;;;;;;15.13;3.22;;;;;;;;;;5013563;28;20029;-69
2022/04/07 02:02:49;;;;;;;17.35;3.25;;;;;;;;;;5016406;28;20034;-69
2022/04/07 02:05:15;;;;;;;16.70;4.95;;;;;;;;;;5014182;28;20050;-68
2022/04/07 02:07:43;;;;;;;17.30;3.60;;;;;;;;;;5017178;28;20037;-69
2022/04/07 02:10:11;;;;;;;15.50;3.22;;;;;;;;;;5013685;28;20050;-68
2022/04/07 02:12:41;;;;;;;18.20;3.80;;;;;;;;;;5014708;28;20034;-69
2022/04/07 02:15:07;;;;;;;13.10;3.50;;;;;;;;;;5019234;28;20025;-68
2022/04/07 02:17:34;;;;;;;15.00;3.80;;;;;;;;;;5020897;28;20021;-69
2022/04/07 02:20:01;;;;;;;20.10;4.25;;;;;;;;;;5016086;28;20021;-69
2022/04/07 02:22:28;;;;;;;15.75;3.33;;;;;;;;;;5016431;28;20168;-69
2022/04/07 02:24:56;;;;;;;17.48;4.97;;;;;;;;;;5020371;28;20050;-69
2022/04/07 02:27:22;;;;;;;16.20;3.80;;;;;;;;;;5015444;28;20034;-70
2022/04/07 02:29:48;;;;;;;20.83;3.95;;;;;;;;;;5014279;28;20514;-69
2022/04/07 02:32:14;;;;;;;16.15;2.95;;;;;;;;;;5016358;28;20442;-68
2022/04/07 02:34:41;;;;;;;12.43;3.47;;;;;;;;;;5017843;28;20060;-68
2022/04/07 02:37:07;;;;;;;14.43;3.25;;;;;;;;;;5013017;28;20018;-69
2022/04/07 02:39:34;;;;;;;16.30;3.17;;;;;;;;;;5014974;28;20040;-68
2022/04/07 02:42:00;;;;;;;16.05;3.80;;;;;;;;;;5015187;28;20021;-68
2022/04/07 02:44:26;;;;;;;18.10;4.35;;;;;;;;;;5012799;28;20042;-69
2022/04/07 02:46:52;;;;;;;16.85;3.05;;;;;;;;;;5015182;28;20030;-68
2022/04/07 02:49:18;;;;;;;13.98;3.42;;;;;;;;;;5013694;28;20029;-69
2022/04/07 02:51:45;;;;;;;16.05;3.95;;;;;;;;;;5018888;28;20049;-69
2022/04/07 02:54:11;;;;;;;22.00;3.38;;;;;;;;;;5019899;28;20033;-69
2022/04/07 02:56:38;;;;;;;17.50;3.33;;;;;;;;;;5020389;28;20030;-69
2022/04/07 02:59:04;;;;;;;13.35;3.22;;;;;;;;;;5019017;28;20045;-68
2022/04/07 03:01:30;;;;;;;13.98;3.30;;;;;;;;;;5017460;28;20525;-68
2022/04/07 03:03:57;;;;;;;11.75;2.92;;;;;;;;;;5016888;28;20032;-68
2022/04/07 03:06:23;;;;;;;18.40;3.72;;;;;;;;;;5019151;28;20490;-68
2022/04/07 03:08:50;;;;;;;14.63;3.50;;;;;;;;;;5019507;28;20088;-69
2022/04/07 03:11:16;;;;;;;13.90;3.53;;;;;;;;;;5018302;28;20395;-68
2022/04/07 03:13:42;;;;;;;18.20;3.45;;;;;;;;;;5018211;28;20022;-68
2022/04/07 03:16:09;;;;;;;21.92;3.83;;;;;;;;;;5013902;28;20022;-69
2022/04/07 03:18:35;;;;;;;15.88;3.75;;;;;;;;;;5013714;28;20034;-68
2022/04/07 03:21:02;;;;;;;15.02;3.30;;;;;;;;;;5023901;28;20071;-71
2022/04/07 03:23:28;;;;;;;19.40;3.58;;;;;;;;;;5025913;28;20025;-68
2022/04/07 03:25:54;;;;;;;19.88;3.60;;;;;;;;;;5025139;28;20029;-68
2022/04/07 03:28:20;;;;;;;19.05;3.90;;;;;;;;;;5024041;28;20932;-68
2022/04/07 03:30:47;;;;;;;15.82;3.40;;;;;;;;;;5009183;28;20478;-68
2022/04/07 03:33:13;;;;;;;23.58;4.18;;;;;;;;;;5005672;28;20105;-69
2022/04/07 03:35:39;;;;;;;20.33;4.40;;;;;;;;;;5005664;28;20049;-69
2022/04/07 03:38:06;;;;;;;16.35;3.78;;;;;;;;;;5003752;28;20041;-68
2022/04/07 03:40:34;;;;;;;13.85;4.03;;;;;;;;;;5003230;28;20596;-68
2022/04/07 03:43:00;;;;;;;27.80;4.93;;;;;;;;;;5000835;28;20041;-69
2022/04/07 03:45:27;;;;;;;18.15;3.55;;;;;;;;;;5003147;28;20030;-69
2022/04/07 03:47:53;;;;;;;21.50;3.85;;;;;;;;;;5001176;28;20080;-68
2022/04/07 03:50:19;;;;;;;20.25;4.55;;;;;;;;;;5001199;28;20774;-69
2022/04/07 03:52:45;;;;;;;20.45;4.57;;;;;;;;;;5003241;28;20029;-69
2022/04/07 03:55:11;;;;;;;20.90;4.70;;;;;;;;;;5002912;28;20100;-69
2022/04/07 03:57:37;;;;;;;25.30;4.95;;;;;;;;;;5003043;28;20030;-69
2022/04/07 04:00:05;;;;;;;27.55;5.38;;;;;;;;;;5010743;28;20025;-68
2022/04/07 04:02:31;;;;;;;20.05;3.50;;;;;;;;;;5021537;28;20041;-69
2022/04/07 04:04:57;;;;;;;17.60;3.63;;;;;;;;;;5021731;28;20069;-69
2022/04/07 04:07:23;;;;;;;24.23;4.70;;;;;;;;;;5022299;28;20068;-68
2022/04/07 04:09:49;;;;;;;12.88;4.10;;;;;;;;;;5021052;28;20064;-69
2022/04/07 04:12:15;;;;;;;20.38;3.95;;;;;;;;;;5021126;28;20728;-69
2022/04/07 04:14:42;;;;;;;21.67;5.25;;;;;;;;;;5022256;28;20503;-69
2022/04/07 04:17:08;;;;;;;18.60;4.22;;;;;;;;;;5021919;28;20676;-69
2022/04/07 04:19:34;;;;;;;19.75;4.35;;;;;;;;;;5022184;28;20018;-69
2022/04/07 04:22:00;;;;;;;21.90;4.80;;;;;;;;;;5022207;28;20037;-68
2022/04/07 04:24:26;;;;;;;15.50;4.20;;;;;;;;;;5020768;28;20113;-69
2022/04/07 04:26:52;;;;;;;24.08;4.32;;;;;;;;;;5009555;28;20371;-69
2022/04/07 04:29:19;;;;;;;19.17;5.13;;;;;;;;;;5002300;28;20514;-69
2022/04/07 04:31:45;;;;;;;18.40;4.60;;;;;;;;;;5002077;28;20037;-68
2022/04/07 04:34:11;;;;;;;22.00;4.53;;;;;;;;;;5002937;28;20053;-68
2022/04/07 04:36:37;;;;;;;20.50;4.57;;;;;;;;;;5002057;28;20025;-69
2022/04/07 04:39:04;;;;;;;22.90;5.63;;;;;;;;;;4999516;28;20034;-68
2022/04/07 04:41:30;;;;;;;18.42;4.55;;;;;;;;;;5000104;28;20018;-68
2022/04/07 04:43:56;;;;;;;20.70;4.00;;;;;;;;;;5002062;28;20040;-69
2022/04/07 04:46:22;;;;;;;22.00;5.68;;;;;;;;;;5001832;28;20029;-69
2022/04/07 04:48:48;;;;;;;18.70;3.60;;;;;;;;;;5001581;28;20033;-69
2022/04/07 04:51:14;;;;;;;24.42;5.15;;;;;;;;;;5001289;28;20026;-68
2022/04/07 04:53:41;;;;;;;18.23;4.53;;;;;;;;;;5022039;28;20377;-69
2022/04/07 04:56:07;;;;;;;19.85;4.10;;;;;;;;;;5023815;28;20616;-68
2022/04/07 04:58:33;;;;;;;23.75;4.47;;;;;;;;;;5023910;28;20459;-68
2022/04/07 05:00:59;;;;;;;22.23;4.20;;;;;;;;;;5021416;28;20029;-68
2022/04/07 05:03:25;;;;;;;13.82;4.10;;;;;;;;;;5021861;28;20028;-68
2022/04/07 05:05:52;;;;;;;16.90;3.78;;;;;;;;;;5023252;28;20064;-68
2022/04/07 05:08:20;;;;;;;24.35;4.05;;;;;;;;;;5023424;28;20044;-68
2022/04/07 05:10:47;;;;;;;14.05;4.38;;;;;;;;;;5010099;28;20021;-69
2022/04/07 05:13:13;;;;;;;16.23;3.75;;;;;;;;;;5019512;28;20033;-69
2022/04/07 05:15:39;;;;;;;19.17;4.00;;;;;;;;;;5020244;28;20549;-69
2022/04/07 05:18:05;;;;;;;18.90;3.38;;;;;;;;;;5012202;28;20053;-69
2022/04/07 05:20:32;;;;;;;16.13;3.20;;;;;;;;;;5001222;28;20026;-70
2022/04/07 05:22:58;;;;;;;18.52;3.40;;;;;;;;;;5001056;28;20041;-69
2022/04/07 05:25:24;;;;;;;10.57;2.90;;;;;;;;;;5008252;28;20038;-69
2022/04/07 05:27:50;;;;;;;19.13;3.85;;;;;;;;;;5018933;28;20379;-69
2022/04/07 05:30:16;;;;;;;15.02;2.75;;;;;;;;;;5018725;28;20513;-69
2022/04/07 05:32:43;;;;;;;15.02;2.85;;;;;;;;;;5021114;28;20053;-80
2022/04/07 05:35:10;;;;;;;19.85;3.25;;;;;;;;;;5020553;28;20037;-69
2022/04/07 05:37:37;;;;;;;9.93;2.97;;;;;;;;;;5021080;28;20025;-70
2022/04/07 05:40:03;;;;;;;18.90;3.55;;;;;;;;;;5034497;28;20127;-76
2022/04/07 05:42:29;;;;;;;9.77;2.33;;;;;;;;;;5036918;28;20042;-70
2022/04/07 05:44:56;;;;;;;16.17;2.70;;;;;;;;;;5001945;28;20030;-69
2022/04/07 05:47:22;;;;;;;13.18;2.80;;;;;;;;;;5002930;28;20025;-69
2022/04/07 05:49:48;;;;;;;14.98;2.50;;;;;;;;;;5002981;28;20060;-69
2022/04/07 05:52:14;;;;;;;9.98;2.47;;;;;;;;;;5002631;28;20140;-69
2022/04/07 05:54:40;;;;;;;16.67;2.90;;;;;;;;;;5001689;28;20080;-69
2022/04/07 05:57:06;;;;;;;16.80;2.83;;;;;;;;;;5002757;28;20038;-68
2022/04/07 05:59:33;;;;;;;11.75;3.00;;;;;;;;;;5001455;28;20041;-69
2022/04/07 06:01:59;;;;;;;13.18;2.30;;;;;;;;;;5001650;28;20026;-68
2022/04/07 06:04:25;;;;;;;11.20;1.88;;;;;;;;;;4999960;28;20079;-69
2022/04/07 06:06:51;;;;;;;9.35;2.20;;;;;;;;;;4999232;28;20398;-68
2022/04/07 06:09:17;;;;;;;16.88;2.47;;;;;;;;;;5000984;28;20638;-68
2022/04/07 06:11:43;;;;;;;9.88;2.50;;;;;;;;;;4999670;28;20620;-69
2022/04/07 06:14:09;;;;;;;12.88;3.25;;;;;;;;;;5001391;28;20036;-68
2022/04/07 06:16:35;;;;;;;13.00;2.17;;;;;;;;;;5002607;28;20028;-68
2022/04/07 06:19:02;;;;;;;17.27;3.45;;;;;;;;;;4999573;28;20433;-68
2022/04/07 06:21:31;;;;;;;19.65;7.60;;;;;;;;;;5002856;28;20634;-68
2022/04/07 06:23:57;;;;;;;20.38;4.47;;;;;;;;;;5001113;28;20632;-68
2022/04/07 06:26:24;;;;;;;14.85;3.38;;;;;;;;;;5002334;28;20026;-68
2022/04/07 06:28:50;;;;;;;9.90;2.95;;;;;;;;;;5002274;28;20780;-69
2022/04/07 06:31:16;;;;;;;14.25;2.47;;;;;;;;;;5002640;28;20026;-68
2022/04/07 06:33:42;;;;;;;13.45;2.33;;;;;;;;;;5000227;28;20029;-68
2022/04/07 06:36:08;;;;;;;18.00;2.35;;;;;;;;;;5002858;28;20022;-68
2022/04/07 06:38:35;;;;;;;16.95;3.95;;;;;;;;;;5002458;28;20018;-68
2022/04/07 06:41:01;;;;;;;12.88;2.42;;;;;;;;;;5002320;28;20029;-68
2022/04/07 06:43:27;;;;;;;14.15;3.63;;;;;;;;;;5001227;28;20120;-68
2022/04/07 06:45:54;;;;;;;20.52;2.33;;;;;;;;;;5002975;28;20112;-68
2022/04/07 06:48:21;;;;;;;14.20;2.88;;;;;;;;;;5002587;28;20045;-68
2022/04/07 06:50:47;;;;;;;16.77;3.75;;;;;;;;;;5001195;28;20057;-68
2022/04/07 06:53:13;;;;;;;14.15;2.45;;;;;;;;;;5002100;28;20018;-68
2022/04/07 06:55:39;;;;;;;15.35;2.72;;;;;;;;;;5002183;28;20088;-68
2022/04/07 06:58:08;;;;;;;16.73;3.60;;;;;;;;;;5002174;28;20018;-68
2022/04/07 07:00:35;;;;;;;19.08;3.83;;;;;;;;;;5002133;28;20108;-68
2022/04/07 07:03:03;;;;;;;22.58;3.22;;;;;;;;;;5002289;28;20049;-68
2022/04/07 07:05:30;;;;;;;15.90;3.00;;;;;;;;;;4999982;28;20074;-68
2022/04/07 07:07:56;;;;;;;17.85;2.83;;;;;;;;;;5002315;28;20036;-68
2022/04/07 07:10:23;;;;;;;15.60;2.78;;;;;;;;;;5002478;28;20067;-70
2022/04/07 07:12:50;;;;;;;19.05;3.17;;;;;;;;;;4999393;28;20438;-68
2022/04/07 07:15:16;;;;;;;18.23;3.50;;;;;;;;;;5002953;28;20041;-69
2022/04/07 07:17:42;;;;;;;20.65;3.15;;;;;;;;;;5021720;28;20031;-68
2022/04/07 07:20:12;;;;;;;13.52;2.78;;;;;;;;;;5020722;28;20033;-68
2022/04/07 07:22:39;;;;;;;13.95;3.63;;;;;;;;;;5018734;28;20020;-70
2022/04/07 07:25:05;;;;;;;14.80;3.25;;;;;;;;;;5010822;28;20038;-68
2022/04/07 07:27:39;;;;;;;10.57;5.22;;;;;;;;;;4999342;28;20520;-67
2022/04/07 07:30:08;;;;;;;12.20;4.75;;;;;;;;;;5005816;28;20041;-68
2022/04/07 07:32:34;;;;;;;14.07;4.60;;;;;;;;;;5019073;28;20026;-68
2022/04/07 07:35:00;;;;;;;15.30;5.80;;;;;;;;;;5017096;28;20029;-68
2022/04/07 07:37:26;;;;;;;12.88;4.20;;;;;;;;;;5020444;28;20026;-70
2022/04/07 07:39:52;;;;;;;17.20;6.00;;;;;;;;;;5020910;28;20048;-68
2022/04/07 07:42:19;;;;;;;14.63;7.05;;;;;;;;;;5023175;28;20056;-68
2022/04/07 07:44:45;;;;;;;10.75;6.38;;;;;;;;;;5021319;28;20716;-67
2022/04/07 07:47:11;;;;;;;6.32;2.22;;;;;;;;;;5003916;28;20504;-68
2022/04/07 07:49:37;;;;;;;6.95;3.78;;;;;;;;;;5002077;28;20046;-67
2022/04/07 07:52:03;;;;;;;6.40;2.58;;;;;;;;;;5002751;28;20026;-68
2022/04/07 07:54:29;;;;;;;4.90;2.03;;;;;;;;;;5002613;28;20108;-67
2022/04/07 07:56:56;;;;;;;6.47;2.00;;;;;;;;;;5000871;28;20022;-68
2022/04/07 07:59:23;;;;;;;5.05;1.98;;;;;;;;;;5006031;28;20045;-68
2022/04/07 08:01:49;;;;;;;6.55;2.20;;;;;;;;;;5005915;28;20022;-68
2022/04/07 08:04:16;;;;;;;5.63;1.70;;;;;;;;;;5001457;28;20025;-68
2022/04/07 08:06:42;;;;;;;4.32;1.60;;;;;;;;;;5002894;28;20049;-68
2022/04/07 08:09:10;;;;;;;7.32;1.75;;;;;;;;;;5003219;28;20038;-68
2022/04/07 08:11:36;;;;;;;4.60;1.65;;;;;;;;;;5002687;28;20652;-68
2022/04/07 08:14:02;;;;;;;6.50;1.08;;;;;;;;;;5005950;28;20037;-68
2022/04/07 08:16:30;;;;;;;4.30;1.58;;;;;;;;;;5008818;28;20021;-67
2022/04/07 08:18:56;;;;;;;5.82;1.05;;;;;;;;;;5023762;28;20041;-67
2022/04/07 08:21:23;;;;;;;6.63;1.02;;;;;;;;;;5022645;28;20033;-68
2022/04/07 08:23:49;;;;;;;8.90;1.63;;;;;;;;;;5023256;28;20382;-69
2022/04/07 08:26:15;;;;;;;5.38;1.25;;;;;;;;;;5024248;28;20023;-68
2022/04/07 08:28:42;;;;;;;5.05;1.30;;;;;;;;;;5022425;28;20076;-68
2022/04/07 08:31:08;;;;;;;6.63;1.15;;;;;;;;;;5023306;28;20033;-68
2022/04/07 08:33:34;;;;;;;6.03;1.75;;;;;;;;;;5021702;28;20028;-68
2022/04/07 08:36:00;;;;;;;5.13;1.38;;;;;;;;;;5002824;28;20018;-67
2022/04/07 08:38:26;;;;;;;9.85;1.63;;;;;;;;;;5004627;28;20026;-68
2022/04/07 08:40:53;;;;;;;5.97;1.35;;;;;;;;;;5002694;28;20022;-68
2022/04/07 08:43:19;;;;;;;9.38;1.90;;;;;;;;;;5004148;28;20033;-68
2022/04/07 08:45:45;;;;;;;9.93;1.80;;;;;;;;;;5002630;28;20031;-68
2022/04/07 08:48:12;;;;;;;6.45;2.20;;;;;;;;;;5004007;28;20034;-68
2022/04/07 08:50:42;;;;;;;8.93;1.75;;;;;;;;;;5003349;28;20022;-68
2022/04/07 08:53:09;;;;;;;8.30;1.92;;;;;;;;;;5004045;28;20030;-68
2022/04/07 08:55:35;;;;;;;8.20;1.98;;;;;;;;;;5014583;28;20660;-68
2022/04/07 08:58:01;;;;;;;6.97;2.00;;;;;;;;;;4999102;28;20034;-68
2022/04/07 09:00:28;;;;;;;9.13;1.95;;;;;;;;;;5001100;28;20069;-68
2022/04/07 09:02:54;;;;;;;7.50;1.80;;;;;;;;;;5001277;28;20022;-81
2022/04/07 09:05:24;;;;;;;13.75;2.10;;;;;;;;;;5001664;28;20050;-68
2022/04/07 09:07:52;;;;;;;5.55;2.13;;;;;;;;;;5000473;28;20030;-68
2022/04/07 09:10:19;;;;;;;7.78;2.25;;;;;;;;;;5007668;28;20041;-68
2022/04/07 09:12:45;;;;;;;14.48;2.47;;;;;;;;;;5021044;28;20032;-69
2022/04/07 09:15:13;;;;;;;16.27;2.50;;;;;;;;;;5012463;28;20061;-67
2022/04/07 09:17:51;;;;;;;7.40;2.38;;;;;;;;;;5000728;28;20028;-68
2022/04/07 09:20:17;;;;;;;8.82;1.92;;;;;;;;;;4998237;28;20578;-68
2022/04/07 09:22:43;;;;;;;9.77;1.88;;;;;;;;;;5000997;28;20026;-67
2022/04/07 09:25:10;;;;;;;7.00;2.35;;;;;;;;;;5001148;28;20040;-68
2022/04/07 09:27:40;;;;;;;8.55;2.92;;;;;;;;;;5014708;28;20466;-67
2022/04/07 09:30:08;;;;;;;7.57;1.60;;;;;;;;;;5020421;28;20615;-68
2022/04/07 09:32:40;;;;;;;8.27;1.95;;;;;;;;;;5017385;28;20529;-68
2022/04/07 09:35:06;;;;;;;;;;;;;;;;;;5000401;28;20582;-68
2022/04/07 09:37:32;;;;;;;9.13;2.08;;;;;;;;;;5001103;28;19909;-68
2022/04/07 09:40:18;;;;;;;7.07;1.90;;;;;;;;;;5000434;28;20626;-68
2022/04/07 09:42:44;;;;;;;9.45;2.83;;;;;;;;;;4998996;28;20087;-69
2022/04/07 09:45:12;;;;;;;10.30;1.80;;;;;;;;;;5000999;28;20111;-68
2022/04/07 09:47:45;;;;;;;8.73;1.88;;;;;;;;;;5003889;28;20092;-69
2022/04/07 09:50:28;;;;;;;7.75;2.13;;;;;;;;;;5005147;28;20120;-68
2022/04/07 09:52:56;;;;;;;9.60;1.67;;;;;;;;;;5017879;28;20355;-68
2022/04/07 09:55:23;;;;;;;8.35;1.77;;;;;;;;;;5021747;28;20576;-68
2022/04/07 09:57:51;;;;;;;7.20;1.70;;;;;;;;;;5022453;28;20026;-68
2022/04/07 10:00:19;;;;;;;6.63;2.00;;;;;;;;;;5022008;28;20049;-68
2022/04/07 10:02:46;;;;;;;7.18;1.67;;;;;;;;;;5021811;28;20025;-69
2022/04/07 10:05:12;;;;;;;8.75;2.05;;;;;;;;;;5020467;28;20048;-69
2022/04/07 10:07:41;;;;;;;8.15;1.80;;;;;;;;;;5021098;28;20025;-69
2022/04/07 10:10:07;;;;;;;11.93;3.15;;;;;;;;;;5018462;28;20070;-68
2022/04/07 10:12:34;;;;;;;10.68;1.90;;;;;;;;;;5018727;28;20021;-68
2022/04/07 10:15:00;;;;;;;6.30;2.13;;;;;;;;;;5020391;28;20041;-68
2022/04/07 10:17:26;;;;;;;10.95;4.78;;;;;;;;;;5010344;28;20075;-68
2022/04/07 10:19:57;;;;;;;12.60;4.47;;;;;;;;;;5020565;28;20414;-68
2022/04/07 10:22:32;;;;;;;11.18;3.20;;;;;;;;;;5018502;28;20041;-68
2022/04/07 10:25:03;;;;;;;8.75;2.35;;;;;;;;;;5019952;28;20049;-68
2022/04/07 10:27:29;;;;;;;7.53;1.85;;;;;;;;;;5019561;28;20025;-68
2022/04/07 10:30:03;;;;;;;9.13;1.80;;;;;;;;;;5018844;28;20509;-68
2022/04/07 10:32:39;;;;;;;7.00;1.98;;;;;;;;;;5019735;28;20091;-68
2022/04/07 10:35:06;;;;;;;8.40;2.65;;;;;;;;;;5018636;28;20030;-68
2022/04/07 10:37:41;;;;;;;9.93;2.10;;;;;;;;;;5018067;28;20026;-68
2022/04/07 10:40:26;;;;;;;10.45;1.80;;;;;;;;;;5019768;28;20033;-68
2022/04/07 10:43:13;;;;;;;7.35;2.08;;;;;;;;;;5019693;28;20094;-68
2022/04/07 10:45:40;;;;;;;11.05;2.15;;;;;;;;;;5016416;28;20038;-69
2022/04/07 10:48:25;;;;;;;11.13;1.90;;;;;;;;;;5018964;28;20631;-70
2022/04/07 10:50:57;;;;;;;6.25;1.73;;;;;;;;;;5020023;28;20659;-69
2022/04/07 10:53:27;;;;;;;7.78;1.98;;;;;;;;;;5019492;28;20041;-69
2022/04/07 10:55:54;;;;;;;7.03;2.08;;;;;;;;;;5020027;28;20091;-70
2022/04/07 10:58:20;;;;;;;6.88;2.33;;;;;;;;;;5016766;28;20049;-69
2022/04/07 11:00:46;;;;;;;6.65;2.05;;;;;;;;;;5019839;28;20022;-69
2022/04/07 11:03:14;;;;;;;8.10;1.80;;;;;;;;;;5020183;28;20033;-69
2022/04/07 11:06:13;;;;;;;7.32;1.80;;;;;;;;;;5019743;28;20045;-69
2022/04/07 11:08:39;;;;;;;3.90;1.42;;;;;;;;;;5016500;28;20135;-69
2022/04/07 11:11:05;;;;;;;10.88;2.22;;;;;;;;;;5019711;28;20065;-70
2022/04/07 11:13:50;;;;;;;5.45;1.58;;;;;;;;;;5022385;28;20033;-69
2022/04/07 11:16:30;;;;;;;9.80;2.10;;;;;;;;;;5021925;28;20032;-70
2022/04/07 11:19:07;;;;;;;7.80;1.70;;;;;;;;;;5014849;28;20095;-69
2022/04/07 11:21:44;;;;;;;7.28;1.77;;;;;;;;;;5004694;28;20034;-69
2022/04/07 11:24:15;;;;;;;8.98;1.85;;;;;;;;;;5004239;28;20033;-70
2022/04/07 11:26:41;;;;;;;5.50;1.88;;;;;;;;;;5002415;28;20026;-67
2022/04/07 11:29:11;;;;;;;7.53;1.98;;;;;;;;;;5018985;28;20099;-68
2022/04/07 11:31:42;;;;;;;7.43;1.52;;;;;;;;;;5014626;28;20674;-69
2022/04/07 11:34:27;;;;;;;8.93;1.52;;;;;;;;;;5012012;28;20116;-69
2022/04/07 11:36:53;;;;;;;8.52;2.28;;;;;;;;;;5009608;28;20164;-69
2022/04/07 11:39:20;;;;;;;5.25;1.55;;;;;;;;;;5001099;28;20107;-69
2022/04/07 11:41:46;;;;;;;4.13;1.40;;;;;;;;;;5020909;28;20079;-69
2022/04/07 11:44:12;;;;;;;4.78;1.75;;;;;;;;;;5012152;28;20623;-69
2022/04/07 11:46:40;;;;;;;7.28;2.13;;;;;;;;;;5000835;28;20022;-68
2022/04/07 11:49:07;;;;;;;7.75;2.08;;;;;;;;;;5004949;28;20048;-70
2022/04/07 11:51:34;;;;;;;6.55;1.80;;;;;;;;;;5003397;28;20026;-70
2022/04/07 11:54:01;;;;;;;7.78;1.63;;;;;;;;;;5007959;28;20062;-68
2022/04/07 11:56:31;;;;;;;4.72;1.50;;;;;;;;;;5012082;28;20056;-69
2022/04/07 11:59:00;;;;;;;5.35;1.42;;;;;;;;;;5022629;28;20040;-68
2022/04/07 12:01:28;;;;;;;7.25;1.45;;;;;;;;;;5016564;28;20044;-68
2022/04/07 12:03:55;;;;;;;7.53;1.50;;;;;;;;;;5019037;28;20120;-69
2022/04/07 12:06:25;;;;;;;7.53;1.67;;;;;;;;;;5009059;28;20100;-70
2022/04/07 12:08:51;;;;;;;4.22;1.40;;;;;;;;;;5013862;28;20191;-70
2022/04/07 12:11:19;;;;;;;5.07;1.38;;;;;;;;;;5021693;28;20105;-71
2022/04/07 12:13:46;;;;;;;8.02;2.13;;;;;;;;;;5011323;28;20235;-72
2022/04/07 12:16:12;;;;;;;6.80;1.70;;;;;;;;;;5007100;28;20261;-70
2022/04/07 12:18:38;;;;;;;8.27;1.40;;;;;;;;;;5013374;28;20054;-77
2022/04/07 12:21:06;;;;;;;4.88;1.33;;;;;;;;;;5007600;28;20116;-71
2022/04/07 12:23:32;;;;;;;6.70;1.85;;;;;;;;;;5013654;28;20532;-69
2022/04/07 12:26:00;;;;;;;6.72;1.50;;;;;;;;;;5017164;28;20040;-70
2022/04/07 12:28:33;;;;;;;4.13;1.40;;;;;;;;;;5021454;28;20038;-69
2022/04/07 12:31:00;;;;;;;7.30;1.67;;;;;;;;;;5019178;28;20029;-69
2022/04/07 12:33:39;;;;;;;4.45;1.25;;;;;;;;;;5007393;28;20064;-72
2022/04/07 12:36:08;;;;;;;5.03;1.48;;;;;;;;;;5002149;28;20509;-69
2022/04/07 12:38:34;;;;;;;5.03;1.58;;;;;;;;;;5003172;28;20076;-69
2022/04/07 12:41:16;;;;;;;4.53;2.10;;;;;;;;;;5021855;28;20026;-68
2022/04/07 12:43:46;;;;;;;4.32;1.48;;;;;;;;;;5004329;28;20143;-68
2022/04/07 12:46:13;;;;;;;5.55;1.20;;;;;;;;;;5018071;28;20067;-69
2022/04/07 12:48:59;;;;;;;2.60;1.40;;;;;;;;;;5004583;28;20095;-69
2022/04/07 12:51:26;;;;;;;7.70;2.25;;;;;;;;;;5021317;28;20485;-68
2022/04/07 12:54:04;;;;;;;6.13;1.73;;;;;;;;;;5014348;28;20251;-75
2022/04/07 12:56:30;;;;;;;3.53;1.70;;;;;;;;;;5008851;28;20029;-70
2022/04/07 12:59:03;;;;;;;4.47;1.70;;;;;;;;;;5019338;28;20121;-70
2022/04/07 13:01:33;;;;;;;5.93;1.83;;;;;;;;;;5019100;28;20134;-70
2022/04/07 13:04:00;;;;;;;5.78;1.70;;;;;;;;;;5019630;28;20033;-70
2022/04/07 13:06:27;;;;;;;5.85;1.95;;;;;;;;;;5019983;28;20888;-68
2022/04/07 13:08:53;;;;;;;8.35;2.00;;;;;;;;;;5017356;28;20045;-69
2022/04/07 13:11:32;;;;;;;6.45;1.95;;;;;;;;;;5019720;28;20048;-69
2022/04/07 13:13:58;;;;;;;7.68;2.13;;;;;;;;;;5019143;28;20043;-69
2022/04/07 13:16:25;;;;;;;4.78;2.15;;;;;;;;;;5020544;28;20393;-69
2022/04/07 13:18:51;;;;;;;6.47;2.53;;;;;;;;;;5020762;28;20086;-69
2022/04/07 13:21:17;;;;;;;6.45;2.10;;;;;;;;;;5020882;28;20037;-69
2022/04/07 13:23:43;;;;;;;6.47;1.95;;;;;;;;;;5018496;28;20033;-70
2022/04/07 13:26:09;;;;;;;4.55;1.90;;;;;;;;;;5019724;28;20112;-73
2022/04/07 13:28:35;;;;;;;6.75;2.28;;;;;;;;;;5003554;28;20029;-70
2022/04/07 13:31:03;;;;;;;7.40;2.90;;;;;;;;;;5011959;28;20061;-69
2022/04/07 13:33:29;;;;;;;4.90;2.13;;;;;;;;;;5018801;28;20052;-68
2022/04/07 13:35:56;;;;;;;8.38;2.00;;;;;;;;;;5016258;28;20030;-68
2022/04/07 13:38:22;;;;;;;7.05;1.90;;;;;;;;;;4997559;28;20123;-68
2022/04/07 13:40:49;;;;;;;7.15;2.33;;;;;;;;;;5008182;28;20142;-69
2022/04/07 13:43:19;;;;;;;9.25;2.20;;;;;;;;;;5018157;28;20028;-69
2022/04/07 13:45:45;;;;;;;8.65;2.50;;;;;;;;;;5018278;28;20033;-69
2022/04/07 13:48:12;;;;;;;6.47;1.95;;;;;;;;;;5019535;28;20099;-69
2022/04/07 13:50:39;;;;;;;6.10;2.17;;;;;;;;;;5020000;28;20022;-68
2022/04/07 13:53:05;;;;;;;7.78;2.20;;;;;;;;;;5019329;28;20175;-69
2022/04/07 13:55:32;;;;;;;11.75;2.47;;;;;;;;;;5019854;28;20021;-68
2022/04/07 13:57:59;;;;;;;5.47;2.05;;;;;;;;;;5018163;28;20177;-70
2022/04/07 14:00:25;;;;;;;8.65;2.33;;;;;;;;;;5020057;28;20029;-70
2022/04/07 14:02:52;;;;;;;7.93;2.55;;;;;;;;;;5020070;28;20032;-68
2022/04/07 14:05:18;;;;;;;9.65;2.30;;;;;;;;;;5019717;28;20053;-68
2022/04/07 14:07:45;;;;;;;8.27;2.35;;;;;;;;;;5016072;28;20131;-70
2022/04/07 14:10:11;;;;;;;12.77;3.13;;;;;;;;;;5007398;28;20033;-69
2022/04/07 14:12:41;;;;;;;10.82;2.28;;;;;;;;;;5019219;28;20592;-72
2022/04/07 14:15:07;;;;;;;6.90;2.88;;;;;;;;;;5016715;28;20037;-68
2022/04/07 14:17:34;;;;;;;7.57;2.53;;;;;;;;;;4999258;28;20116;-68
2022/04/07 14:20:00;;;;;;;6.05;2.42;;;;;;;;;;4999765;28;20033;-68
2022/04/07 14:22:26;;;;;;;10.07;2.85;;;;;;;;;;4999773;28;20197;-69
2022/04/07 14:24:52;;;;;;;9.77;2.30;;;;;;;;;;4997530;28;20022;-69
2022/04/07 14:27:19;;;;;;;11.57;3.22;;;;;;;;;;4999384;28;20221;-68
2022/04/07 14:29:45;;;;;;;9.73;2.55;;;;;;;;;;4999765;28;20087;-68
2022/04/07 14:32:12;;;;;;;9.77;2.83;;;;;;;;;;4999351;28;20027;-68
2022/04/07 14:34:38;;;;;;;10.93;3.17;;;;;;;;;;5005229;28;20025;-68
2022/04/07 14:37:05;;;;;;;7.22;2.30;;;;;;;;;;5015029;28;20025;-68